Time;durP1;ratioP1;P1;durP2;ratioP2;P2;SDS_P1;SDS_P2;PMS_P1;PMS_P2;Temp;Humidity;BMP_temperature;BMP_pressure;BME280_temperature;BME280_humidity;BME280_pressure;Samples;Min_cycle;Max_cycle;Signal;HPM_P1;HPM_P2
2022/12/11 00:04:39;;;;;;;51.45;20.10;;;;;;;-1.17;100.00;100831.16;10375077;28;1071903;-69
2022/12/11 00:09:40;;;;;;;62.03;19.90;;;;;;;-1.15;100.00;100834.59;10410258;28;20064;-69
2022/12/11 00:14:44;;;;;;;37.05;20.40;;;;;;;-1.16;100.00;100827.75;10412588;28;20141;-69
2022/12/11 00:19:45;;;;;;;15.90;12.82;;;;;;;-1.13;100.00;100825.19;10412750;28;20277;-70
2022/12/11 00:24:49;;;;;;;32.80;19.93;;;;;;;-1.10;100.00;100827.78;10412292;28;20080;-69
2022/12/11 00:29:52;;;;;;;40.78;18.33;;;;;;;-1.06;100.00;100828.69;10412315;28;20316;-71
2022/12/11 00:34:55;;;;;;;36.83;20.55;;;;;;;-1.08;100.00;100820.97;10412407;28;20083;-69
2022/12/11 00:39:57;;;;;;;53.38;19.85;;;;;;;-1.07;100.00;100817.56;10410303;28;20070;-70
2022/12/11 00:45:01;;;;;;;30.20;18.60;;;;;;;-1.05;100.00;100831.25;10412381;28;20070;-69
2022/12/11 00:50:03;;;;;;;45.25;20.98;;;;;;;-1.04;100.00;100825.28;10412665;28;20063;-69
2022/12/11 00:55:06;;;;;;;47.85;22.08;;;;;;;-1.02;100.00;100825.28;10412291;28;20080;-69
2022/12/11 01:00:12;;;;;;;36.70;20.08;;;;;;;-0.99;100.00;100820.16;10417379;28;20430;-70
2022/12/11 01:05:14;;;;;;;36.08;18.83;;;;;;;-0.97;100.00;100820.16;10418873;28;20124;-69
2022/12/11 01:10:24;;;;;;;42.42;17.80;;;;;;;-0.95;100.00;100806.53;10416953;28;20074;-69
2022/12/11 01:15:32;;;;;;;30.70;15.50;;;;;;;-0.94;100.00;100815.94;10418535;28;20081;-71
2022/12/11 01:20:34;;;;;;;30.00;17.92;;;;;;;-0.92;100.00;100821.06;10418544;28;20084;-68
2022/12/11 01:25:38;;;;;;;41.80;19.15;;;;;;;-0.87;100.00;100828.75;10418138;28;20063;-69
2022/12/11 01:30:43;;;;;;;43.67;21.63;;;;;;;-0.86;100.00;100821.06;10417916;28;20087;-69
2022/12/11 01:35:44;;;;;;;38.75;19.10;;;;;;;-0.84;100.00;100821.94;10417844;28;20111;-69
2022/12/11 01:40:47;;;;;;;30.17;13.68;;;;;;;-0.84;100.00;100818.53;10415425;28;20069;-68
2022/12/11 01:45:50;;;;;;;37.63;19.33;;;;;;;-0.81;100.00;100809.16;10417406;28;20067;-68
2022/12/11 01:50:57;;;;;;;35.58;18.55;;;;;;;-0.82;100.00;100806.59;10417666;28;20063;-69
2022/12/11 01:56:00;;;;;;;37.28;20.55;;;;;;;-0.82;100.00;100806.59;10417056;28;20084;-68
2022/12/11 02:01:03;;;;;;;26.27;18.73;;;;;;;-0.75;100.00;100807.47;10416092;28;20092;-68
2022/12/11 02:06:06;;;;;;;32.95;19.17;;;;;;;-0.75;100.00;100802.34;10416835;28;20065;-68
2022/12/11 02:11:15;;;;;;;;;;;;;;;-0.75;100.00;100807.47;10414187;28;20068;-69
2022/12/11 02:16:32;;;;;;;23.92;15.30;;;;;;;-0.72;100.00;100808.31;10415999;28;20595;-68
2022/12/11 02:21:43;;;;;;;37.70;18.80;;;;;;;-0.70;100.00;100803.19;10416586;28;20067;-68
2022/12/11 02:27:19;;;;;;;22.10;15.90;;;;;;;-0.74;100.00;100809.16;10416074;28;20080;-68
2022/12/11 02:32:30;;;;;;;31.40;17.58;;;;;;;-0.70;100.00;100800.63;10415439;28;20404;-69
2022/12/11 02:37:37;;;;;;;30.27;16.50;;;;;;;-0.72;100.00;100798.06;10413882;28;20550;-69
2022/12/11 02:42:43;;;;;;;39.72;17.80;;;;;;;-0.72;100.00;100799.78;10415103;28;20064;-70
2022/12/11 02:47:49;;;;;;;35.15;18.27;;;;;;;-0.69;100.00;100797.22;10415141;28;20070;-69
2022/12/11 02:52:57;;;;;;;30.20;17.45;;;;;;;-0.67;100.00;100803.22;10414965;28;20111;-68
2022/12/11 02:58:06;;;;;;;31.73;17.92;;;;;;;-0.68;100.00;100801.50;10415227;28;20099;-69
2022/12/11 03:03:11;;;;;;;22.05;16.80;;;;;;;-0.68;100.00;100798.94;10413844;28;20150;-69
2022/12/11 03:08:16;;;;;;;23.83;15.20;;;;;;;-0.65;100.00;100788.72;10412618;28;20069;-68
2022/12/11 03:13:22;;;;;;;29.75;15.30;;;;;;;-0.66;100.00;100781.84;10413354;28;20179;-68
2022/12/11 03:18:36;;;;;;;25.80;16.30;;;;;;;-0.65;100.00;100778.47;10413299;28;20072;-68
2022/12/11 03:23:50;;;;;;;17.15;13.32;;;;;;;-0.71;100.00;100770.72;10412390;28;20549;-69
2022/12/11 03:29:00;;;;;;;16.42;13.45;;;;;;;-0.69;100.00;100777.56;10413364;28;20156;-69
2022/12/11 03:34:16;;;;;;;16.42;13.65;;;;;;;-0.71;100.00;100773.28;10413352;28;20086;-68
2022/12/11 03:39:26;;;;;;;20.52;14.52;;;;;;;-0.69;100.00;100776.69;10411599;28;20072;-68
2022/12/11 03:44:33;;;;;;;15.43;13.32;;;;;;;-0.73;100.00;100773.28;10413514;28;20069;-68
2022/12/11 03:49:42;;;;;;;17.30;13.73;;;;;;;-0.71;100.00;100768.16;10413508;28;20467;-68
2022/12/11 03:54:49;;;;;;;20.10;13.55;;;;;;;-0.73;100.00;100757.03;10413044;28;20084;-68
2022/12/11 03:59:51;;;;;;;15.48;12.82;;;;;;;-0.75;100.00;100745.94;10413104;28;20446;-68
2022/12/11 04:04:55;;;;;;;23.85;13.95;;;;;;;-0.73;100.00;100750.22;10413025;28;20089;-70
2022/12/11 04:09:57;;;;;;;17.38;12.65;;;;;;;-0.72;100.00;100753.66;10410911;28;20072;-68
2022/12/11 04:15:03;;;;;;;14.27;12.35;;;;;;;-0.72;100.00;100751.09;10412929;28;20528;-68
2022/12/11 04:25:38;;;;;;;13.63;11.45;;;;;;;-0.76;100.00;100747.66;10336171;28;20079;-68
2022/12/11 04:30:40;;;;;;;17.02;12.60;;;;;;;-0.72;100.00;100748.53;10412422;28;20527;-69
2022/12/11 04:35:43;;;;;;;16.65;13.00;;;;;;;-0.70;100.00;100739.97;10419128;28;20100;-68
2022/12/11 04:40:45;;;;;;;24.42;12.52;;;;;;;-0.66;100.00;100735.72;10418091;28;20490;-68
2022/12/11 04:45:47;;;;;;;17.00;12.63;;;;;;;-0.73;100.00;100737.41;10420255;28;20067;-67
2022/12/11 04:50:50;;;;;;;19.52;13.38;;;;;;;-0.69;100.00;100740.81;10420143;28;20061;-69
2022/12/11 04:55:54;;;;;;;17.42;12.25;;;;;;;-0.72;100.00;100735.72;10419023;28;20475;-69
2022/12/11 05:00:55;;;;;;;14.45;12.45;;;;;;;-0.71;100.00;100729.72;10418918;28;20504;-70
2022/12/11 05:05:58;;;;;;;22.85;13.35;;;;;;;-0.74;100.00;100734.84;10418558;28;20088;-69
2022/12/11 05:11:05;;;;;;;17.85;11.82;;;;;;;-0.78;100.00;100732.25;10415708;28;20085;-69
2022/12/11 05:16:10;;;;;;;19.23;13.05;;;;;;;-0.75;100.00;100731.44;10417258;28;20589;-68
2022/12/11 05:21:15;;;;;;;19.52;10.63;;;;;;;-0.72;100.00;100725.47;10418647;28;20073;-69
2022/12/11 05:26:20;;;;;;;19.33;13.73;;;;;;;-0.80;100.00;100718.59;10418275;28;20056;-69
2022/12/11 05:31:24;;;;;;;13.30;11.18;;;;;;;-0.76;100.00;100716.06;10417835;28;20060;-69
2022/12/11 05:36:30;;;;;;;14.45;10.52;;;;;;;-0.75;100.00;100715.19;10418021;28;20085;-69
2022/12/11 05:41:40;;;;;;;16.98;11.25;;;;;;;-0.75;100.00;100713.50;10414190;28;20130;-70
2022/12/11 05:46:42;;;;;;;13.05;9.95;;;;;;;-0.71;100.00;100717.78;10417366;28;20416;-69
2022/12/11 05:51:45;;;;;;;22.80;9.85;;;;;;;-0.70;100.00;100723.75;10417633;28;20065;-69
2022/12/11 05:56:50;;;;;;;17.20;10.30;;;;;;;-0.70;100.00;100723.75;10416738;28;20417;-69
2022/12/11 06:01:52;;;;;;;12.73;10.02;;;;;;;-0.66;100.00;100730.59;10416349;28;20121;-69
2022/12/11 06:06:55;;;;;;;15.07;9.88;;;;;;;-0.64;100.00;100728.91;10416505;28;20107;-69
2022/12/11 06:11:57;;;;;;;13.27;9.38;;;;;;;-0.60;100.00;100732.31;10415197;28;20121;-69
2022/12/11 06:17:00;;;;;;;9.95;9.02;;;;;;;-0.64;100.00;100723.75;10414676;28;20547;-69
2022/12/11 06:22:04;;;;;;;12.95;10.75;;;;;;;-0.63;100.00;100729.72;10414138;28;20074;-69
2022/12/11 06:27:06;;;;;;;10.98;9.27;;;;;;;-0.59;100.00;100722.06;10414137;28;20061;-69
2022/12/11 06:32:08;;;;;;;9.95;8.95;;;;;;;-0.58;100.00;100717.81;10414159;28;20058;-70
2022/12/11 06:37:11;;;;;;;12.15;9.60;;;;;;;-0.59;100.00;100721.19;10414810;28;20082;-70
2022/12/11 06:42:13;;;;;;;14.13;9.98;;;;;;;-0.60;100.00;100720.34;10410996;28;20074;-70
2022/12/11 06:47:15;;;;;;;14.57;10.18;;;;;;;-0.57;100.00;100720.38;10413532;28;20156;-70
2022/12/11 06:52:18;;;;;;;15.80;11.43;;;;;;;-0.58;100.00;100710.09;10413707;28;20115;-70
2022/12/11 06:57:19;;;;;;;15.02;10.27;;;;;;;-0.61;100.00;100708.41;10412794;28;20070;-70
2022/12/11 07:02:22;;;;;;;13.30;10.23;;;;;;;-0.58;100.00;100708.38;10412783;28;20136;-70
2022/12/11 07:07:25;;;;;;;11.93;10.43;;;;;;;-0.54;100.00;100714.38;10413205;28;20062;-70
2022/12/11 07:12:26;;;;;;;11.77;9.77;;;;;;;-0.54;100.00;100722.91;10410186;28;20099;-70
2022/12/11 07:17:29;;;;;;;17.15;11.77;;;;;;;-0.56;100.00;100731.47;10413082;28;20063;-70
2022/12/11 07:22:32;;;;;;;17.60;11.13;;;;;;;-0.57;100.00;100730.63;10412031;28;20089;-70
2022/12/11 07:27:34;;;;;;;12.35;9.50;;;;;;;-0.59;100.00;100737.44;10412584;28;20074;-70
2022/12/11 07:32:36;;;;;;;16.67;11.75;;;;;;;-0.52;100.00;100749.41;10411506;28;20171;-70
2022/12/11 07:37:41;;;;;;;16.17;9.45;;;;;;;-0.55;100.00;100739.16;10409876;28;20075;-70
2022/12/11 07:42:43;;;;;;;13.95;10.30;;;;;;;-0.58;100.00;100739.13;10410252;28;20314;-70
2022/12/11 07:47:45;;;;;;;13.40;9.77;;;;;;;-0.57;100.00;100735.75;10410317;28;20071;-69
2022/12/11 07:52:48;;;;;;;11.55;9.10;;;;;;;-0.55;100.00;100739.16;10409950;28;20472;-69
2022/12/11 07:57:49;;;;;;;14.65;9.32;;;;;;;-0.54;100.00;100740.84;10410224;28;20063;-70
2022/12/11 08:02:51;;;;;;;18.65;11.38;;;;;;;-0.60;100.00;100733.16;10410301;28;20100;-70
2022/12/11 08:07:54;;;;;;;13.43;10.68;;;;;;;-0.61;100.00;100734.03;10409715;28;20596;-70
2022/12/11 08:12:56;;;;;;;20.15;10.77;;;;;;;-0.65;100.00;100738.28;10418426;28;20085;-69
2022/12/11 08:17:58;;;;;;;15.23;11.13;;;;;;;-0.63;100.00;100742.53;10417982;28;20096;-70
2022/12/11 08:23:01;;;;;;;17.00;11.40;;;;;;;-0.64;100.00;100736.59;10418414;28;20068;-69
2022/12/11 08:28:03;;;;;;;12.30;10.35;;;;;;;-0.65;100.00;100738.28;10418013;28;20066;-69
2022/12/11 08:33:05;;;;;;;17.77;10.98;;;;;;;-0.59;100.00;100736.56;10418468;28;20125;-69
2022/12/11 08:38:08;;;;;;;15.90;10.18;;;;;;;-0.58;100.00;100741.72;10416521;28;20156;-70
2022/12/11 08:43:10;;;;;;;16.77;10.88;;;;;;;-0.60;100.00;100735.72;10419321;28;20064;-70
2022/12/11 08:48:12;;;;;;;21.27;12.05;;;;;;;-0.62;100.00;100732.28;10418506;28;20523;-69
2022/12/11 08:53:16;;;;;;;13.85;10.52;;;;;;;-0.54;100.00;100730.59;10417200;28;20597;-69
2022/12/11 08:58:18;;;;;;;14.95;11.27;;;;;;;-0.52;100.00;100728.03;10417651;28;20579;-69
2022/12/11 09:03:20;;;;;;;16.33;11.13;;;;;;;-0.53;100.00;100737.47;10417639;28;20456;-70
2022/12/11 09:08:23;;;;;;;18.40;11.15;;;;;;;-0.54;100.00;100730.59;10415183;28;20109;-69
2022/12/11 09:13:25;;;;;;;17.48;11.02;;;;;;;-0.64;100.00;100728.91;10418096;28;20115;-67
2022/12/11 09:18:27;;;;;;;8.27;7.57;;;;;;;-0.63;100.00;100724.59;10416541;28;20066;-69
2022/12/11 09:23:31;;;;;;;15.57;12.13;;;;;;;-0.54;100.00;100727.19;10416920;28;20145;-69
2022/12/11 09:28:34;;;;;;;19.02;12.98;;;;;;;-0.57;100.00;100729.75;10417486;28;20094;-68
2022/12/11 09:33:36;;;;;;;;;;;;;;;-0.58;100.00;100728.88;10416564;28;20107;-68
2022/12/11 09:38:39;;;;;;;17.75;11.20;;;;;;;-0.63;100.00;100717.78;10403108;28;19943;-69
2022/12/11 09:43:46;;;;;;;18.90;13.23;;;;;;;-0.58;100.00;100722.94;10406132;28;20420;-69
2022/12/11 09:48:52;;;;;;;12.55;11.25;;;;;;;-0.59;100.00;100726.31;10413283;28;20067;-68
2022/12/11 09:54:00;;;;;;;22.63;13.20;;;;;;;-0.68;100.00;100722.03;10409231;28;20089;-68
2022/12/11 09:59:15;;;;;;;19.65;12.98;;;;;;;-0.67;100.00;100714.38;10411409;28;20137;-70
2022/12/11 10:04:39;;;;;;;21.35;13.93;;;;;;;-0.57;100.00;100710.13;10411605;28;20581;-69
2022/12/11 10:09:57;;;;;;;17.52;11.93;;;;;;;-0.48;100.00;100714.38;10405934;28;20076;-70
2022/12/11 10:15:29;;;;;;;13.52;12.07;;;;;;;-0.42;100.00;100711.84;10415236;28;20079;-69
2022/12/11 10:20:38;;;;;;;14.30;10.57;;;;;;;-0.39;100.00;100713.53;10414774;28;20060;-68
2022/12/11 10:25:47;;;;;;;13.98;10.88;;;;;;;-0.41;100.00;100713.53;10414734;28;20632;-69
2022/12/11 10:31:03;;;;;;;12.75;11.43;;;;;;;-0.37;100.00;100711.84;10413255;28;20073;-69
2022/12/11 10:36:09;;;;;;;16.58;10.32;;;;;;;-0.32;100.00;100715.25;10412045;28;20079;-69
2022/12/11 10:41:20;;;;;;;19.30;11.40;;;;;;;-0.34;100.00;100706.69;10410624;28;20064;-69
2022/12/11 10:46:25;;;;;;;20.90;13.35;;;;;;;-0.42;100.00;100703.28;10413000;28;20094;-69
2022/12/11 10:51:37;;;;;;;18.80;11.30;;;;;;;-0.39;100.00;100698.16;10413114;28;20070;-68
2022/12/11 10:56:40;;;;;;;16.20;10.30;;;;;;;-0.37;100.00;100693.03;10409999;28;20185;-69
2022/12/11 11:01:47;;;;;;;15.45;11.38;;;;;;;-0.32;100.00;100689.63;10412284;28;20095;-69
2022/12/11 11:06:49;;;;;;;17.50;10.00;;;;;;;-0.41;100.00;100685.31;10412840;28;20151;-69
2022/12/11 11:11:52;;;;;;;15.63;10.70;;;;;;;-0.27;100.00;100687.91;10409565;28;20062;-69
2022/12/11 11:17:00;;;;;;;13.50;10.65;;;;;;;-0.16;100.00;100680.22;10412864;28;20088;-69
2022/12/11 11:22:10;;;;;;;17.38;12.15;;;;;;;0.06;100.00;100679.31;10413363;28;20058;-69
2022/12/11 11:27:25;;;;;;;19.60;12.00;;;;;;;-0.16;100.00;100680.22;10413392;28;20434;-68
2022/12/11 11:32:34;;;;;;;17.65;10.30;;;;;;;-0.09;100.00;100681.06;10413464;28;20068;-68
2022/12/11 11:37:35;;;;;;;16.02;10.60;;;;;;;0.06;100.00;100679.31;10412748;28;20065;-68
2022/12/11 11:42:50;;;;;;;18.00;11.90;;;;;;;0.17;100.00;100682.72;10410691;28;20067;-69
2022/12/11 11:48:09;;;;;;;16.42;12.50;;;;;;;0.32;100.00;100665.59;10411780;28;20563;-69
2022/12/11 11:53:20;;;;;;;13.32;10.35;;;;;;;0.18;100.00;100671.63;10413200;28;20063;-67
2022/12/11 11:58:30;;;;;;;24.42;12.18;;;;;;;0.25;100.00;100657.88;10412907;28;20126;-70
2022/12/11 12:03:32;;;;;;;18.98;10.00;;;;;;;0.20;100.00;100662.19;10412248;28;20106;-70
2022/12/11 12:08:46;;;;;;;15.35;11.45;;;;;;;0.08;100.00;100657.09;10410802;28;20056;-68
2022/12/11 12:14:06;;;;;;;13.15;10.93;;;;;;;0.20;100.00;100646.78;10412000;28;20449;-69
2022/12/11 12:19:26;;;;;;;13.25;9.55;;;;;;;0.31;100.00;100648.47;10412484;28;20068;-70
2022/12/11 12:24:42;;;;;;;15.27;9.52;;;;;;;0.40;100.00;100630.47;10411891;28;20060;-69
2022/12/11 12:29:59;;;;;;;9.65;8.65;;;;;;;0.60;100.00;100634.66;10412120;28;20059;-70
2022/12/11 12:35:21;;;;;;;10.63;8.30;;;;;;;0.75;100.00;100637.16;10412117;28;20079;-68
2022/12/11 12:40:32;;;;;;;8.65;7.22;;;;;;;0.53;100.00;100630.41;10410625;28;20114;-68
2022/12/11 12:45:50;;;;;;;19.23;10.45;;;;;;;0.49;100.00;100632.16;10412840;28;20076;-69
2022/12/11 12:50:52;;;;;;;24.20;9.98;;;;;;;0.48;100.00;100633.84;10412024;28;20543;-68
2022/12/11 12:55:56;;;;;;;14.05;8.40;;;;;;;0.37;100.00;100633.91;10413526;28;20672;-70
2022/12/11 13:01:14;;;;;;;12.02;8.57;;;;;;;0.31;100.00;100633.09;10385556;28;20493;-69
2022/12/11 13:06:30;;;;;;;9.68;8.35;;;;;;;0.29;100.00;100637.34;10373724;28;20085;-68
2022/12/11 13:11:35;;;;;;;11.48;8.02;;;;;;;0.36;100.00;100621.94;10417259;28;20121;-69
2022/12/11 13:16:42;;;;;;;11.02;8.77;;;;;;;0.28;100.00;100633.09;10385714;28;20075;-68
2022/12/11 13:21:56;;;;;;;11.05;8.93;;;;;;;0.33;100.00;100628.78;10378124;28;20068;-69
2022/12/11 13:27:10;;;;;;;12.45;8.98;;;;;;;0.29;100.00;100624.50;10377677;28;20055;-70
2022/12/11 13:32:30;;;;;;;14.18;9.50;;;;;;;0.21;100.00;100632.25;10376883;28;20519;-68
2022/12/11 13:37:40;;;;;;;11.43;9.60;;;;;;;0.19;100.00;100634.81;10376534;28;20518;-69
2022/12/11 13:42:51;;;;;;;16.73;8.75;;;;;;;0.12;100.00;100633.13;10375769;28;20080;-68
2022/12/11 13:47:58;;;;;;;12.73;8.40;;;;;;;0.11;100.00;100636.56;10376023;28;20489;-69
2022/12/11 13:53:03;;;;;;;10.45;9.32;;;;;;;0.11;100.00;100631.41;10377016;28;20057;-69
2022/12/11 13:58:17;;;;;;;17.80;9.15;;;;;;;0.15;100.00;100633.13;10375437;28;20080;-68
2022/12/11 14:03:20;;;;;;;12.57;8.45;;;;;;;0.03;100.00;100643.41;10375441;28;20511;-69
2022/12/11 14:08:30;;;;;;;11.25;9.07;;;;;;;0.01;100.00;100650.25;10372741;28;20068;-69
2022/12/11 14:13:36;;;;;;;15.13;9.32;;;;;;;-0.09;100.00;100650.28;10375977;28;20082;-68
2022/12/11 14:18:41;;;;;;;10.25;8.18;;;;;;;-0.14;100.00;100642.56;10375494;28;20068;-68
2022/12/11 14:23:53;;;;;;;12.63;8.65;;;;;;;-0.17;100.00;100652.00;10375624;28;20064;-70
2022/12/11 14:28:57;;;;;;;6.78;6.13;;;;;;;-0.23;100.00;100650.28;10373259;28;20119;-69
2022/12/11 14:34:11;;;;;;;9.85;8.70;;;;;;;-0.28;100.00;100650.28;10374558;28;20121;-70
2022/12/11 14:39:20;;;;;;;11.77;8.45;;;;;;;-0.29;100.00;100653.72;10372160;28;20075;-69
2022/12/11 14:44:28;;;;;;;18.48;10.70;;;;;;;-0.32;100.00;100658.84;10374130;28;20113;-70
2022/12/11 14:49:42;;;;;;;9.77;7.30;;;;;;;-0.35;100.00;100663.97;10374528;28;20062;-71
2022/12/11 14:54:51;;;;;;;8.52;7.13;;;;;;;-0.38;100.00;100663.94;10373787;28;20089;-71
2022/12/11 14:59:55;;;;;;;11.55;9.07;;;;;;;-0.44;100.00;100661.41;10373931;28;20571;-71
2022/12/11 15:05:20;;;;;;;11.05;8.95;;;;;;;-0.46;100.00;100670.78;10373649;28;20082;-71
2022/12/11 15:10:35;;;;;;;10.02;7.05;;;;;;;-0.47;100.00;100680.22;10368101;28;20064;-71
2022/12/11 15:15:45;;;;;;;9.88;7.75;;;;;;;-0.56;100.00;100675.91;10369090;28;20582;-70
2022/12/11 15:20:53;;;;;;;13.95;7.38;;;;;;;-0.56;100.00;100675.91;10371316;28;20115;-71
2022/12/11 15:26:04;;;;;;;8.30;6.93;;;;;;;-0.62;100.00;100673.34;10400543;28;20063;-71
2022/12/11 15:31:23;;;;;;;10.25;8.32;;;;;;;-0.68;100.00;100671.63;10414597;28;20072;-69
2022/12/11 15:36:38;;;;;;;12.65;8.07;;;;;;;-0.68;100.00;100675.91;10413828;28;20085;-70
2022/12/11 15:41:42;;;;;;;10.82;8.95;;;;;;;-0.67;100.00;100683.59;10411315;28;20130;-71
2022/12/11 15:46:44;;;;;;;10.50;8.70;;;;;;;-0.69;100.00;100679.31;10413530;28;20069;-70
2022/12/11 15:51:47;;;;;;;9.57;8.00;;;;;;;-0.68;100.00;100684.44;10413236;28;20087;-70
2022/12/11 15:56:50;;;;;;;10.57;8.80;;;;;;;-0.69;100.00;100682.72;10413456;28;20090;-70
2022/12/11 16:01:52;;;;;;;10.27;7.30;;;;;;;-0.74;100.00;100686.13;10411869;28;20114;-71
2022/12/11 16:06:59;;;;;;;10.27;8.10;;;;;;;-0.74;100.00;100681.00;10371801;28;20093;-70
2022/12/11 16:12:01;;;;;;;9.95;7.50;;;;;;;-0.74;100.00;100686.13;10362560;28;20103;-69
2022/12/11 16:17:05;;;;;;;9.57;7.95;;;;;;;-0.74;100.00;100681.88;10370734;28;20074;-71
2022/12/11 16:22:09;;;;;;;10.68;6.88;;;;;;;-0.74;100.00;100681.00;10371402;28;20095;-70
2022/12/11 16:27:11;;;;;;;7.13;6.43;;;;;;;-0.76;100.00;100677.59;10359919;28;20207;-71
2022/12/11 16:32:14;;;;;;;6.38;5.75;;;;;;;-0.81;100.00;100678.47;10353524;28;20428;-70
2022/12/11 16:37:18;;;;;;;8.68;7.88;;;;;;;-0.79;100.00;100673.31;10343396;28;20089;-70
2022/12/11 16:42:20;;;;;;;8.32;6.38;;;;;;;-0.83;100.00;100677.59;10336986;28;20084;-70
2022/12/11 16:47:21;;;;;;;;;;;;;;;-0.82;100.00;100684.41;10365036;28;20385;-70
2022/12/11 16:52:26;;;;;;;8.80;7.80;;;;;;;-0.80;100.00;100676.72;10377857;28;19941;-70
2022/12/11 16:57:28;;;;;;;10.10;7.68;;;;;;;-0.84;100.00;100675.88;10377524;28;20082;-70
2022/12/11 17:02:29;;;;;;;8.77;7.95;;;;;;;-0.82;100.00;100675.88;10376851;28;20089;-70
2022/12/11 17:07:34;;;;;;;10.82;9.05;;;;;;;-0.83;100.00;100667.34;10376505;28;20065;-70
2022/12/11 17:12:37;;;;;;;11.50;8.18;;;;;;;-0.86;100.00;100667.31;10373819;28;20071;-70
2022/12/11 17:17:41;;;;;;;19.58;9.55;;;;;;;-0.90;100.00;100663.03;10376366;28;20407;-69
2022/12/11 17:22:45;;;;;;;11.02;8.50;;;;;;;-0.90;100.00;100670.72;10376145;28;20068;-69
2022/12/11 17:27:46;;;;;;;10.32;7.95;;;;;;;-0.89;100.00;100667.31;10375850;28;20088;-70
2022/12/11 17:32:49;;;;;;;13.27;9.57;;;;;;;-0.92;100.00;100667.31;10374566;28;20064;-71
2022/12/11 17:37:52;;;;;;;11.02;9.50;;;;;;;-0.91;100.00;100669.03;10372990;28;20351;-70
2022/12/11 17:42:56;;;;;;;10.38;8.40;;;;;;;-0.86;100.00;100666.47;10374743;28;20084;-70
2022/12/11 17:47:58;;;;;;;10.55;7.97;;;;;;;-0.92;100.00;100667.31;10375057;28;20072;-71
2022/12/11 17:53:02;;;;;;;10.00;8.23;;;;;;;-0.91;100.00;100659.66;10373862;28;20066;-71
2022/12/11 17:58:04;;;;;;;10.80;8.45;;;;;;;-0.91;100.00;100675.03;10374144;28;20543;-71
2022/12/11 18:03:06;;;;;;;10.75;8.00;;;;;;;-0.98;100.00;100665.59;10373057;28;20125;-70
2022/12/11 18:08:14;;;;;;;12.13;8.07;;;;;;;-0.99;100.00;100660.47;10371646;28;20818;-70
2022/12/11 18:13:16;;;;;;;9.50;7.43;;;;;;;-0.95;100.00;100667.31;10373586;28;20520;-69
2022/12/11 18:18:18;;;;;;;8.30;6.85;;;;;;;-0.94;100.00;100667.31;10374231;28;20082;-70
2022/12/11 18:23:21;;;;;;;19.90;10.70;;;;;;;-0.88;100.00;100668.19;10373884;28;20062;-69
2022/12/11 18:28:23;;;;;;;12.48;8.23;;;;;;;-0.93;100.00;100666.47;10373107;28;20072;-71
2022/12/11 18:33:24;;;;;;;9.80;8.38;;;;;;;-0.90;100.00;100670.72;10372126;28;20068;-71
2022/12/11 18:38:28;;;;;;;12.70;9.93;;;;;;;-0.97;100.00;100663.88;10370043;28;20081;-70
2022/12/11 18:43:29;;;;;;;15.43;9.75;;;;;;;-0.96;100.00;100655.38;10372307;28;20068;-70
2022/12/11 18:48:31;;;;;;;12.40;7.95;;;;;;;-0.97;100.00;100659.63;10335042;28;20068;-70
2022/12/11 18:53:37;;;;;;;7.20;6.00;;;;;;;-0.99;100.00;100656.19;10332290;28;20073;-71
2022/12/11 18:58:40;;;;;;;7.75;6.95;;;;;;;-1.00;100.00;100649.34;10330765;28;20160;-69
2022/12/11 19:03:43;;;;;;;11.35;9.43;;;;;;;-1.02;100.00;100655.34;10329744;28;20098;-71
2022/12/11 19:08:47;;;;;;;13.90;10.63;;;;;;;-1.07;100.00;100657.88;10327550;28;20070;-71
2022/12/11 19:13:50;;;;;;;14.07;11.65;;;;;;;-1.11;100.00;100651.91;10329960;28;20070;-70
2022/12/11 19:18:52;;;;;;;15.55;11.32;;;;;;;-1.19;100.00;100654.41;10329761;28;20082;-69
2022/12/11 19:23:56;;;;;;;12.73;9.68;;;;;;;-1.28;100.00;100658.66;10329639;28;20104;-70
2022/12/11 19:28:59;;;;;;;9.40;8.48;;;;;;;-1.33;100.00;100659.50;10329296;28;20113;-69
2022/12/11 19:34:01;;;;;;;13.50;9.80;;;;;;;-1.35;100.00;100663.78;10329285;28;20472;-69
2022/12/11 19:39:04;;;;;;;11.52;9.93;;;;;;;-1.38;100.00;100674.00;10326741;28;20095;-71
2022/12/11 19:44:07;;;;;;;18.92;12.13;;;;;;;-1.35;100.00;100658.66;10328636;28;20523;-70
2022/12/11 19:49:11;;;;;;;9.73;8.73;;;;;;;-1.38;100.00;100668.88;10328598;28;20066;-71
2022/12/11 19:54:18;;;;;;;11.43;10.25;;;;;;;-1.30;100.00;100671.47;10328537;28;20071;-70
2022/12/11 19:59:19;;;;;;;12.25;10.88;;;;;;;-1.21;100.00;100675.75;10328574;28;20128;-70
2022/12/11 20:04:21;;;;;;;15.83;11.03;;;;;;;-1.20;100.00;100673.22;10333445;28;20099;-70
2022/12/11 20:09:24;;;;;;;16.25;12.48;;;;;;;-1.15;100.00;100669.81;10334916;28;20449;-70
2022/12/11 20:14:27;;;;;;;12.70;11.40;;;;;;;-1.16;100.00;100674.09;10337249;28;20120;-70
2022/12/11 20:19:30;;;;;;;16.75;11.13;;;;;;;-1.19;100.00;100674.91;10338867;28;20087;-69
2022/12/11 20:24:33;;;;;;;12.50;10.23;;;;;;;-1.17;100.00;100668.09;10337903;28;20069;-69
2022/12/11 20:29:36;;;;;;;11.90;10.20;;;;;;;-1.15;100.00;100675.78;10337570;28;20068;-69
2022/12/11 20:34:39;;;;;;;20.95;12.48;;;;;;;-1.11;100.00;100681.78;10337507;28;20399;-69
2022/12/11 20:39:42;;;;;;;24.73;12.55;;;;;;;-1.12;100.00;100678.38;10335085;28;20138;-69
2022/12/11 20:44:44;;;;;;;15.95;11.60;;;;;;;-1.09;100.00;100686.03;10337415;28;20080;-69
2022/12/11 20:49:46;;;;;;;19.88;12.00;;;;;;;-1.06;100.00;100686.06;10337507;28;20125;-69
2022/12/11 20:54:50;;;;;;;14.00;10.63;;;;;;;-1.07;100.00;100686.91;10336742;28;20466;-70
2022/12/11 20:59:52;;;;;;;15.90;11.68;;;;;;;-1.02;100.00;100683.50;10376286;28;20090;-70
2022/12/11 21:04:53;;;;;;;14.20;11.65;;;;;;;-1.08;100.00;100687.78;10377918;28;20152;-69
2022/12/11 21:09:56;;;;;;;11.55;9.93;;;;;;;-1.10;100.00;100689.47;10376302;28;20430;-69
2022/12/11 21:14:59;;;;;;;19.52;11.43;;;;;;;-1.08;100.00;100692.03;10377894;28;20071;-69
2022/12/11 21:20:02;;;;;;;15.20;12.15;;;;;;;-1.04;100.00;100694.63;10377955;28;20072;-70
2022/12/11 21:25:07;;;;;;;12.10;9.15;;;;;;;-1.11;100.00;100705.69;10378726;28;20063;-69
2022/12/11 21:30:10;;;;;;;12.95;10.63;;;;;;;-1.07;100.00;100697.16;10377849;28;20062;-69
2022/12/11 21:35:14;;;;;;;9.43;8.52;;;;;;;-1.07;100.00;100701.41;10377603;28;20107;-69
2022/12/11 21:40:17;;;;;;;13.07;11.35;;;;;;;-1.05;100.00;100692.91;10375675;28;20090;-69
2022/12/11 21:45:19;;;;;;;11.55;9.20;;;;;;;-1.09;100.00;100701.41;10377348;28;20429;-70
2022/12/11 21:50:21;;;;;;;14.45;11.52;;;;;;;-1.07;100.00;100697.16;10375596;28;20069;-69
2022/12/11 21:55:25;;;;;;;10.55;9.52;;;;;;;-1.09;100.00;100686.03;10377269;28;20093;-69
2022/12/11 22:00:28;;;;;;;14.80;10.20;;;;;;;-1.15;100.00;100701.41;10377036;28;20069;-71
2022/12/11 22:05:29;;;;;;;;;;;;;;;-1.22;100.00;100705.66;10376805;28;20115;-70
2022/12/11 22:10:32;;;;;;;14.43;10.48;;;;;;;-1.31;100.00;100703.91;10373854;28;19965;-70
2022/12/11 22:15:35;;;;;;;16.45;11.48;;;;;;;-1.37;100.00;100705.59;10375962;28;20084;-70
2022/12/11 22:20:37;;;;;;;19.00;13.18;;;;;;;-1.36;100.00;100704.72;10376191;28;20073;-70
2022/12/11 22:25:42;;;;;;;12.30;10.27;;;;;;;-1.33;100.00;100708.16;10374688;28;20514;-69
2022/12/11 22:30:44;;;;;;;18.45;12.10;;;;;;;-1.32;100.00;100709.88;10375621;28;20523;-70
2022/12/11 22:35:46;;;;;;;16.08;11.55;;;;;;;-1.32;100.00;100709.88;10375669;28;20082;-70
2022/12/11 22:40:50;;;;;;;19.38;11.32;;;;;;;-1.35;100.00;100714.97;10372969;28;20165;-70
2022/12/11 22:45:52;;;;;;;19.90;10.13;;;;;;;-1.35;100.00;100716.66;10375105;28;20062;-70
2022/12/11 22:50:54;;;;;;;16.83;11.65;;;;;;;-1.38;100.00;100714.97;10375525;28;20073;-70
2022/12/11 22:55:58;;;;;;;19.08;10.75;;;;;;;-1.37;100.00;100706.41;10374155;28;20600;-69